KQA608 HKJK-HKMO
Flight info
| Callsign | KQA608 |
|---|---|
| Flight time | 0h 39m |
| Altitude | 29000 |
| Route | ATUDU1D UVOVA UQ135 NEREV NEREV3A |
| Aircraft | B738/M-SDGIJ1LRWY/SB1 |
Departure
| Time | 2026-04-16 13:45 |
|---|---|
| Airport | Jomo Kenyatta International Airport (HKJK) |
Arrival
| Time | 2026-04-16 14:24 |
|---|---|
| Airport | Moi International Airport (HKMO) |
| Time | Latitude | Longitude | Altitude | Speed | Heading |
|---|---|---|---|---|---|
| 2026-04-16 12:58 | -1.33005 | 36.92314 | 5337 ft | 0 kts | 103° |
| 2026-04-16 13:36 | -1.33002 | 36.92302 | 5337 ft | 2 kts | 103° |
| 2026-04-16 13:36 | -1.32995 | 36.92274 | 5337 ft | 6 kts | 103° |
| 2026-04-16 13:37 | -1.32983 | 36.92223 | 5337 ft | 8 kts | 103° |
| 2026-04-16 13:37 | -1.32983 | 36.92217 | 5337 ft | 8 kts | 16° |
| 2026-04-16 13:37 | -1.32978 | 36.92198 | 5337 ft | 3 kts | 261° |
| 2026-04-16 13:37 | -1.32978 | 36.92199 | 5337 ft | 0 kts | 261° |
| 2026-04-16 13:40 | -1.32976 | 36.92191 | 5337 ft | 0 kts | 289° |
| 2026-04-16 13:40 | -1.32975 | 36.92189 | 5337 ft | 0 kts | 306° |
| 2026-04-16 13:40 | -1.32965 | 36.92190 | 5337 ft | 0 kts | 26° |
| 2026-04-16 13:41 | -1.32958 | 36.92215 | 5337 ft | 12 kts | 83° |
| 2026-04-16 13:41 | -1.32925 | 36.92278 | 5337 ft | 6 kts | 39° |
| 2026-04-16 13:41 | -1.32881 | 36.92273 | 5337 ft | 8 kts | 320° |
| 2026-04-16 13:41 | -1.32814 | 36.92222 | 5337 ft | 14 kts | 323° |
| 2026-04-16 13:42 | -1.32809 | 36.92128 | 5337 ft | 19 kts | 237° |
| 2026-04-16 13:42 | -1.32895 | 36.92005 | 5337 ft | 24 kts | 245° |
| 2026-04-16 13:42 | -1.32880 | 36.91852 | 5338 ft | 21 kts | 279° |
| 2026-04-16 13:42 | -1.32846 | 36.91714 | 5338 ft | 22 kts | 319° |
| 2026-04-16 13:43 | -1.32735 | 36.91676 | 5338 ft | 11 kts | 48° |
| 2026-04-16 13:43 | -1.32694 | 36.91723 | 5338 ft | 0 kts | 53° |
| 2026-04-16 13:44 | -1.32688 | 36.91731 | 5338 ft | 10 kts | 53° |
| 2026-04-16 13:44 | -1.32492 | 36.92002 | 5338 ft | 84 kts | 54° |
| 2026-04-16 13:44 | -1.32014 | 36.92658 | 5337 ft | 147 kts | 54° |
| 2026-04-16 13:45 | -1.31303 | 36.93630 | 5411 ft | 188 kts | 54° |
| 2026-04-16 13:45 | -1.30537 | 36.94638 | 6237 ft | 182 kts | 56° |
| 2026-04-16 13:45 | -1.30052 | 36.95879 | 6583 ft | 205 kts | 86° |
| 2026-04-16 13:45 | -1.30107 | 36.97275 | 7348 ft | 204 kts | 91° |
| 2026-04-16 13:46 | -1.30046 | 36.98775 | 7634 ft | 230 kts | 82° |
| 2026-04-16 13:46 | -1.29794 | 37.00431 | 8097 ft | 250 kts | 80° |
| 2026-04-16 13:46 | -1.29520 | 37.02194 | 8669 ft | 266 kts | 81° |
| 2026-04-16 13:46 | -1.29257 | 37.04068 | 9330 ft | 278 kts | 81° |
| 2026-04-16 13:47 | -1.29015 | 37.06003 | 10135 ft | 284 kts | 82° |
| 2026-04-16 13:47 | -1.28797 | 37.07980 | 10774 ft | 295 kts | 83° |
| 2026-04-16 13:47 | -1.28591 | 37.10076 | 11087 ft | 318 kts | 83° |
| 2026-04-16 13:47 | -1.28387 | 37.12390 | 11124 ft | 341 kts | 84° |
| 2026-04-16 13:48 | -1.28197 | 37.14800 | 11123 ft | 349 kts | 84° |
| 2026-04-16 13:48 | -1.28021 | 37.17258 | 11358 ft | 363 kts | 84° |
| 2026-04-16 13:48 | -1.27856 | 37.19840 | 11879 ft | 377 kts | 85° |
| 2026-04-16 13:48 | -1.27708 | 37.22459 | 12607 ft | 383 kts | 85° |
| 2026-04-16 13:49 | -1.27577 | 37.25118 | 13306 ft | 390 kts | 85° |
| 2026-04-16 13:49 | -1.27458 | 37.27843 | 14047 ft | 394 kts | 86° |
| 2026-04-16 13:49 | -1.27350 | 37.30593 | 14772 ft | 399 kts | 86° |
| 2026-04-16 13:49 | -1.27252 | 37.33379 | 15473 ft | 403 kts | 86° |
| 2026-04-16 13:50 | -1.27164 | 37.36167 | 16144 ft | 408 kts | 87° |
| 2026-04-16 13:50 | -1.27084 | 37.39027 | 16814 ft | 412 kts | 87° |
| 2026-04-16 13:50 | -1.27009 | 37.41905 | 17432 ft | 417 kts | 87° |
| 2026-04-16 13:50 | -1.27209 | 37.44818 | 17996 ft | 424 kts | 102° |
| 2026-04-16 13:51 | -1.28344 | 37.47545 | 18669 ft | 428 kts | 119° |
| 2026-04-16 13:51 | -1.29999 | 37.49983 | 19261 ft | 432 kts | 128° |
| 2026-04-16 13:51 | -1.32110 | 37.52179 | 19894 ft | 436 kts | 136° |
| 2026-04-16 13:51 | -1.34411 | 37.54163 | 20503 ft | 439 kts | 140° |
| 2026-04-16 13:52 | -1.36818 | 37.56077 | 21100 ft | 442 kts | 141° |
| 2026-04-16 13:52 | -1.39226 | 37.57947 | 21686 ft | 444 kts | 141° |
| 2026-04-16 13:52 | -1.41696 | 37.59869 | 22305 ft | 445 kts | 141° |
| 2026-04-16 13:52 | -1.44147 | 37.61797 | 22829 ft | 449 kts | 141° |
| 2026-04-16 13:53 | -1.46586 | 37.63740 | 23265 ft | 454 kts | 141° |
| 2026-04-16 13:53 | -1.49066 | 37.65739 | 23769 ft | 458 kts | 141° |
| 2026-04-16 13:53 | -1.51564 | 37.67771 | 24240 ft | 462 kts | 140° |
| 2026-04-16 13:53 | -1.54073 | 37.69824 | 24750 ft | 466 kts | 140° |
| 2026-04-16 13:54 | -1.56593 | 37.71896 | 25227 ft | 469 kts | 140° |
| 2026-04-16 13:54 | -1.59127 | 37.73985 | 25718 ft | 472 kts | 140° |
| 2026-04-16 13:54 | -1.61655 | 37.76073 | 26233 ft | 474 kts | 140° |
| 2026-04-16 13:54 | -1.64200 | 37.78178 | 26917 ft | 471 kts | 140° |
| 2026-04-16 13:55 | -1.66705 | 37.80251 | 27555 ft | 469 kts | 141° |
| 2026-04-16 13:55 | -1.69226 | 37.82338 | 28165 ft | 468 kts | 141° |
| 2026-04-16 13:55 | -1.71754 | 37.84433 | 28738 ft | 468 kts | 141° |
| 2026-04-16 13:55 | -1.74268 | 37.86514 | 29000 ft | 471 kts | 141° |
| 2026-04-16 13:56 | -1.76773 | 37.88588 | 29005 ft | 467 kts | 141° |
| 2026-04-16 13:56 | -1.81768 | 37.92724 | 28988 ft | 464 kts | 141° |
| 2026-04-16 13:57 | -1.86775 | 37.96870 | 28977 ft | 464 kts | 141° |
| 2026-04-16 13:57 | -1.91746 | 38.00986 | 28977 ft | 463 kts | 141° |
| 2026-04-16 13:58 | -1.99210 | 38.07167 | 28977 ft | 464 kts | 141° |
| 2026-04-16 13:58 | -2.04183 | 38.11286 | 28975 ft | 462 kts | 141° |
| 2026-04-16 13:59 | -2.09147 | 38.15400 | 28973 ft | 463 kts | 141° |
| 2026-04-16 13:59 | -2.14167 | 38.19558 | 28974 ft | 463 kts | 141° |
| 2026-04-16 14:00 | -2.19141 | 38.23678 | 28979 ft | 463 kts | 141° |
| 2026-04-16 14:00 | -2.24110 | 38.27795 | 28975 ft | 467 kts | 141° |
| 2026-04-16 14:01 | -2.29250 | 38.32053 | 28961 ft | 487 kts | 141° |
| 2026-04-16 14:01 | -2.34513 | 38.36414 | 28938 ft | 492 kts | 141° |
| 2026-04-16 14:02 | -2.39800 | 38.40797 | 28927 ft | 492 kts | 141° |
| 2026-04-16 14:02 | -2.45083 | 38.45177 | 28916 ft | 491 kts | 141° |
| 2026-04-16 14:03 | -2.50357 | 38.49548 | 28903 ft | 491 kts | 141° |
| 2026-04-16 14:03 | -2.55606 | 38.53901 | 28905 ft | 490 kts | 141° |
| 2026-04-16 14:04 | -2.60893 | 38.58284 | 28890 ft | 491 kts | 141° |
| 2026-04-16 14:04 | -2.66165 | 38.62655 | 28886 ft | 491 kts | 141° |
| 2026-04-16 14:05 | -2.71448 | 38.67037 | 28887 ft | 490 kts | 141° |
| 2026-04-16 14:05 | -2.76723 | 38.71412 | 28872 ft | 490 kts | 141° |
| 2026-04-16 14:06 | -2.81980 | 38.75773 | 28627 ft | 490 kts | 141° |
| 2026-04-16 14:06 | -2.84602 | 38.77949 | 28231 ft | 489 kts | 141° |
| 2026-04-16 14:06 | -2.87241 | 38.80138 | 27668 ft | 490 kts | 141° |
| 2026-04-16 14:07 | -2.89851 | 38.82303 | 27053 ft | 490 kts | 140° |
| 2026-04-16 14:07 | -2.92497 | 38.84497 | 26407 ft | 490 kts | 140° |
| 2026-04-16 14:07 | -2.95112 | 38.86667 | 25767 ft | 491 kts | 140° |
| 2026-04-16 14:07 | -2.97759 | 38.88863 | 25109 ft | 491 kts | 140° |
| 2026-04-16 14:08 | -3.00406 | 38.91060 | 24446 ft | 491 kts | 140° |
| 2026-04-16 14:08 | -3.03005 | 38.93216 | 23794 ft | 485 kts | 140° |
| 2026-04-16 14:08 | -3.05565 | 38.95341 | 23149 ft | 462 kts | 140° |
| 2026-04-16 14:08 | -3.07991 | 38.97356 | 22558 ft | 446 kts | 140° |
| 2026-04-16 14:09 | -3.10380 | 38.99340 | 21979 ft | 443 kts | 140° |
| 2026-04-16 14:09 | -3.12769 | 39.01324 | 21395 ft | 443 kts | 140° |
| 2026-04-16 14:09 | -3.15143 | 39.03296 | 20796 ft | 441 kts | 140° |
| 2026-04-16 14:09 | -3.17514 | 39.05265 | 20203 ft | 438 kts | 140° |
| 2026-04-16 14:10 | -3.19858 | 39.07212 | 19617 ft | 436 kts | 140° |
| 2026-04-16 14:10 | -3.22160 | 39.09123 | 19035 ft | 435 kts | 140° |
| 2026-04-16 14:10 | -3.24499 | 39.11066 | 18445 ft | 434 kts | 139° |
| 2026-04-16 14:10 | -3.26785 | 39.13058 | 17854 ft | 432 kts | 137° |
| 2026-04-16 14:11 | -3.28977 | 39.15116 | 17270 ft | 430 kts | 135° |
| 2026-04-16 14:11 | -3.31111 | 39.17203 | 16695 ft | 425 kts | 135° |
| 2026-04-16 14:11 | -3.33211 | 39.19280 | 16108 ft | 421 kts | 134° |
| 2026-04-16 14:11 | -3.35297 | 39.21339 | 15547 ft | 417 kts | 134° |
| 2026-04-16 14:12 | -3.37344 | 39.23344 | 14987 ft | 414 kts | 134° |
| 2026-04-16 14:12 | -3.39417 | 39.25356 | 14412 ft | 409 kts | 134° |
| 2026-04-16 14:12 | -3.41451 | 39.27318 | 13836 ft | 404 kts | 134° |
| 2026-04-16 14:12 | -3.43477 | 39.29265 | 13293 ft | 401 kts | 134° |
| 2026-04-16 14:13 | -3.45471 | 39.31177 | 12740 ft | 397 kts | 134° |
| 2026-04-16 14:13 | -3.47487 | 39.33109 | 12184 ft | 393 kts | 134° |
| 2026-04-16 14:13 | -3.49444 | 39.34983 | 11658 ft | 390 kts | 134° |
| 2026-04-16 14:13 | -3.51404 | 39.36862 | 11105 ft | 387 kts | 134° |
| 2026-04-16 14:14 | -3.53342 | 39.38719 | 10552 ft | 378 kts | 134° |
| 2026-04-16 14:14 | -3.55200 | 39.40498 | 10101 ft | 357 kts | 134° |
| 2026-04-16 14:14 | -3.56931 | 39.42154 | 9932 ft | 330 kts | 134° |
| 2026-04-16 14:14 | -3.58527 | 39.43681 | 9627 ft | 313 kts | 134° |
| 2026-04-16 14:15 | -3.60078 | 39.45172 | 9209 ft | 301 kts | 134° |
| 2026-04-16 14:15 | -3.61579 | 39.46617 | 8834 ft | 292 kts | 134° |
| 2026-04-16 14:15 | -3.63037 | 39.48022 | 8469 ft | 291 kts | 134° |
| 2026-04-16 14:15 | -3.64494 | 39.49423 | 8093 ft | 289 kts | 134° |
| 2026-04-16 14:16 | -3.65956 | 39.50852 | 7779 ft | 300 kts | 133° |
| 2026-04-16 14:16 | -3.67441 | 39.52309 | 7324 ft | 294 kts | 135° |
| 2026-04-16 14:16 | -3.68889 | 39.53679 | 6988 ft | 283 kts | 135° |
| 2026-04-16 14:16 | -3.70316 | 39.55025 | 6634 ft | 280 kts | 135° |
| 2026-04-16 14:17 | -3.71737 | 39.56376 | 6280 ft | 278 kts | 135° |
| 2026-04-16 14:17 | -3.73121 | 39.57700 | 5932 ft | 271 kts | 135° |
| 2026-04-16 14:17 | -3.74456 | 39.58981 | 5705 ft | 261 kts | 135° |
| 2026-04-16 14:17 | -3.75785 | 39.60257 | 5630 ft | 263 kts | 135° |
| 2026-04-16 14:18 | -3.77095 | 39.61517 | 5545 ft | 263 kts | 134° |
| 2026-04-16 14:18 | -3.78304 | 39.62910 | 5356 ft | 264 kts | 124° |
| 2026-04-16 14:18 | -3.79263 | 39.64473 | 4991 ft | 259 kts | 118° |
| 2026-04-16 14:18 | -3.80094 | 39.66041 | 4812 ft | 251 kts | 117° |
| 2026-04-16 14:19 | -3.80898 | 39.67558 | 4749 ft | 242 kts | 119° |
| 2026-04-16 14:19 | -3.81794 | 39.68903 | 4693 ft | 224 kts | 134° |
| 2026-04-16 14:19 | -3.83120 | 39.69705 | 4625 ft | 225 kts | 166° |
| 2026-04-16 14:19 | -3.84682 | 39.69729 | 4363 ft | 230 kts | 191° |
| 2026-04-16 14:20 | -3.86197 | 39.69140 | 3789 ft | 236 kts | 206° |
| 2026-04-16 14:20 | -3.87629 | 39.68315 | 3178 ft | 240 kts | 208° |
| 2026-04-16 14:20 | -3.89022 | 39.67504 | 2774 ft | 223 kts | 207° |
| 2026-04-16 14:20 | -3.90312 | 39.66768 | 2541 ft | 198 kts | 207° |
| 2026-04-16 14:21 | -3.91460 | 39.66099 | 2316 ft | 187 kts | 206° |
| 2026-04-16 14:21 | -3.92597 | 39.65469 | 2080 ft | 185 kts | 205° |
| 2026-04-16 14:21 | -3.93736 | 39.64845 | 1835 ft | 183 kts | 205° |
| 2026-04-16 14:21 | -3.94847 | 39.64223 | 1602 ft | 177 kts | 206° |
| 2026-04-16 14:22 | -3.95882 | 39.63644 | 1391 ft | 159 kts | 204° |
| 2026-04-16 14:22 | -3.96821 | 39.63126 | 1193 ft | 149 kts | 204° |
| 2026-04-16 14:22 | -3.97708 | 39.62634 | 984 ft | 142 kts | 204° |
| 2026-04-16 14:22 | -3.98548 | 39.62165 | 830 ft | 141 kts | 204° |
| 2026-04-16 14:23 | -3.99416 | 39.61691 | 671 ft | 140 kts | 204° |
| 2026-04-16 14:23 | -4.00259 | 39.61213 | 451 ft | 133 kts | 204° |
| 2026-04-16 14:23 | -4.01093 | 39.60753 | 309 ft | 139 kts | 204° |
| 2026-04-16 14:23 | -4.01934 | 39.60279 | 196 ft | 132 kts | 205° |
| 2026-04-16 14:24 | -4.02640 | 39.59902 | 191 ft | 94 kts | 211° |
| 2026-04-16 14:24 | -4.03107 | 39.59639 | 197 ft | 60 kts | 209° |
| 2026-04-16 14:24 | -4.03269 | 39.59546 | 197 ft | 2 kts | 209° |
| 2026-04-16 14:24 | -4.03270 | 39.59546 | 197 ft | 0 kts | 209° |
| 2026-04-16 14:25 | -4.03277 | 39.59543 | 197 ft | 4 kts | 200° |
| 2026-04-16 14:25 | -4.03319 | 39.59560 | 197 ft | 10 kts | 114° |
| 2026-04-16 14:25 | -4.03326 | 39.59654 | 199 ft | 11 kts | 88° |
| 2026-04-16 14:25 | -4.03326 | 39.59724 | 200 ft | 12 kts | 90° |
| 2026-04-16 14:26 | -4.03325 | 39.59833 | 202 ft | 15 kts | 90° |
| 2026-04-16 14:26 | -4.03325 | 39.59942 | 202 ft | 16 kts | 89° |
| 2026-04-16 14:26 | -4.03306 | 39.60032 | 203 ft | 2 kts | 57° |
| 2026-04-16 14:26 | -4.03303 | 39.60036 | 203 ft | 0 kts | 53° |
| 2026-04-16 14:27 | -4.03291 | 39.60048 | 203 ft | 8 kts | 45° |
| 2026-04-16 14:27 | -4.03239 | 39.60085 | 205 ft | 10 kts | 29° |
| 2026-04-16 14:27 | -4.03185 | 39.60116 | 205 ft | 0 kts | 29° |
| 2026-04-16 14:28 | -4.03184 | 39.60116 | 205 ft | 0 kts | 29° |
| 2026-04-16 14:28 | -4.03179 | 39.60138 | 205 ft | 6 kts | 108° |
| 2026-04-16 14:28 | -4.03192 | 39.60168 | 205 ft | 0 kts | 121° |
| 2026-04-16 14:29 | -4.03194 | 39.60172 | 205 ft | 4 kts | 118° |
| 2026-04-16 14:29 | -4.03210 | 39.60200 | 205 ft | 0 kts | 119° |
| 2026-04-16 14:29 | -4.03210 | 39.60202 | 205 ft | 0 kts | 119° |